createdAt,value
2023-08-05T00:01:54.479Z,4.57
2023-08-05T00:04:21.566Z,4.90
2023-08-05T00:06:48.777Z,4.57
2023-08-05T00:09:15.952Z,5.90
2023-08-05T00:11:42.857Z,7.10
2023-08-05T00:14:09.749Z,4.40
2023-08-05T00:16:36.771Z,3.10
2023-08-05T00:19:03.814Z,3.20
2023-08-05T00:21:31.061Z,4.22
2023-08-05T00:23:58.042Z,3.88
2023-08-05T00:26:24.966Z,4.38
2023-08-05T00:28:51.878Z,5.05
2023-08-05T00:31:18.766Z,4.70
2023-08-05T00:33:45.669Z,6.50
2023-08-05T00:36:12.539Z,3.75
2023-08-05T00:38:39.541Z,2.90
2023-08-05T00:41:06.646Z,4.30
2023-08-05T00:43:33.512Z,2.58
2023-08-05T00:46:01.745Z,5.38
2023-08-05T00:48:29.996Z,3.88
2023-08-05T00:50:57.108Z,3.95
2023-08-05T00:53:24.692Z,5.82
2023-08-05T00:55:53.790Z,4.72
2023-08-05T00:58:24.290Z,3.38
2023-08-05T01:00:51.442Z,3.08
2023-08-05T01:03:19.504Z,5.55
2023-08-05T01:05:48.633Z,3.17
2023-08-05T01:08:16.877Z,5.05
2023-08-05T01:10:44.943Z,4.47
2023-08-05T01:13:11.871Z,3.60
2023-08-05T01:15:38.876Z,4.93
2023-08-05T01:18:07.916Z,5.18
2023-08-05T01:20:47.813Z,3.55
2023-08-05T01:23:21.575Z,6.05
2023-08-05T01:28:16.483Z,5.43
2023-08-05T01:30:45.660Z,3.40
2023-08-05T01:33:15.694Z,5.25
2023-08-05T01:35:49.729Z,5.15
2023-08-05T01:38:17.052Z,4.53
2023-08-05T01:40:45.246Z,3.20
2023-08-05T01:43:12.234Z,6.40
2023-08-05T01:45:39.166Z,3.75
2023-08-05T01:48:06.294Z,2.50
2023-08-05T01:50:34.920Z,4.45
2023-08-05T01:53:01.785Z,5.40
2023-08-05T01:55:28.702Z,4.45
2023-08-05T01:57:55.843Z,6.60
2023-08-05T02:00:22.853Z,4.68
2023-08-05T02:02:50.019Z,5.35
2023-08-05T02:05:17.154Z,3.83
2023-08-05T02:07:44.046Z,5.32
2023-08-05T02:10:11.148Z,4.85
2023-08-05T02:12:38.120Z,4.03
2023-08-05T02:15:05.552Z,4.38
2023-08-05T02:17:32.532Z,3.25
2023-08-05T02:19:59.450Z,3.70
2023-08-05T02:22:26.330Z,4.18
2023-08-05T02:24:53.298Z,4.72
2023-08-05T02:27:20.705Z,3.95
2023-08-05T02:29:48.035Z,3.90
2023-08-05T02:32:15.046Z,7.95
2023-08-05T02:34:41.957Z,3.97
2023-08-05T02:37:09.994Z,5.05
2023-08-05T02:39:39.795Z,3.03
2023-08-05T02:42:06.845Z,5.60
2023-08-05T02:44:33.903Z,4.97
2023-08-05T02:47:00.773Z,4.60
2023-08-05T02:49:29.041Z,5.13
2023-08-05T02:51:55.958Z,4.97
2023-08-05T02:54:22.841Z,3.70
2023-08-05T02:56:50.114Z,4.97
2023-08-05T02:59:17.145Z,5.28
2023-08-05T03:01:44.131Z,6.22
2023-08-05T03:04:11.191Z,7.60
2023-08-05T03:06:38.094Z,5.38
2023-08-05T03:09:05.308Z,6.22
2023-08-05T03:11:32.521Z,4.15
2023-08-05T03:13:59.496Z,3.50
2023-08-05T03:16:26.861Z,5.28
2023-08-05T03:18:53.983Z,3.40
2023-08-05T03:21:20.914Z,4.18
2023-08-05T03:23:48.130Z,4.57
2023-08-05T03:26:15.920Z,2.78
2023-08-05T03:28:42.831Z,3.90
2023-08-05T03:31:09.873Z,3.30
2023-08-05T03:33:36.877Z,5.85
2023-08-05T03:36:04.081Z,4.32
2023-08-05T03:38:31.548Z,4.30
2023-08-05T03:41:04.672Z,4.78
2023-08-05T03:43:31.630Z,5.55
2023-08-05T03:45:58.716Z,4.82
2023-08-05T03:48:25.729Z,3.58
2023-08-05T03:50:52.688Z,6.80
2023-08-05T03:53:19.581Z,2.88
2023-08-05T03:55:47.168Z,4.18
2023-08-05T03:58:14.257Z,5.60
2023-08-05T04:00:43.895Z,4.45
2023-08-05T04:03:11.983Z,4.32
2023-08-05T04:05:39.102Z,3.30
2023-08-05T04:08:06.335Z,5.63
2023-08-05T04:10:35.455Z,3.05
2023-08-05T04:13:04.385Z,3.53
2023-08-05T04:15:34.766Z,4.20
2023-08-05T04:18:02.400Z,6.13
2023-08-05T04:20:31.558Z,4.68
2023-08-05T04:22:58.619Z,5.15
2023-08-05T04:25:26.248Z,3.00
2023-08-05T04:27:53.261Z,2.78
2023-08-05T04:30:20.138Z,3.72
2023-08-05T04:32:47.161Z,5.15
2023-08-05T04:35:14.373Z,6.35
2023-08-05T04:37:41.464Z,3.40
2023-08-05T04:40:09.266Z,4.53
2023-08-05T04:42:36.175Z,3.83
2023-08-05T04:45:03.291Z,5.82
2023-08-05T04:47:30.322Z,3.92
2023-08-05T04:49:57.249Z,5.30
2023-08-05T04:52:24.203Z,2.40
2023-08-05T04:54:51.166Z,3.50
2023-08-05T04:57:18.311Z,4.95
2023-08-05T04:59:45.403Z,3.53
2023-08-05T05:02:12.359Z,3.22
2023-08-05T05:04:39.341Z,4.15
2023-08-05T05:07:06.398Z,3.45
2023-08-05T05:09:33.795Z,4.80
2023-08-05T05:12:01.507Z,4.22
2023-08-05T05:14:33.749Z,3.83
2023-08-05T05:17:00.714Z,3.90
2023-08-05T05:19:27.744Z,2.30
2023-08-05T05:21:56.162Z,4.03
2023-08-05T05:24:23.471Z,4.65
2023-08-05T05:26:51.026Z,4.55
2023-08-05T05:29:21.538Z,2.72
2023-08-05T05:31:48.485Z,4.00
2023-08-05T05:34:15.366Z,3.08
2023-08-05T05:36:42.441Z,4.35
2023-08-05T05:39:09.621Z,5.25
2023-08-05T05:41:36.498Z,5.03
2023-08-05T05:44:05.675Z,3.10
2023-08-05T05:46:35.435Z,3.83
2023-08-05T05:49:04.427Z,4.05
2023-08-05T05:51:31.435Z,4.65
2023-08-05T05:53:58.916Z,3.63
2023-08-05T05:56:25.939Z,4.88
2023-08-05T05:58:52.885Z,4.07
2023-08-05T06:01:19.827Z,4.45
2023-08-05T06:03:47.178Z,4.90
2023-08-05T06:06:14.264Z,4.50
2023-08-05T06:08:41.223Z,4.07
2023-08-05T06:11:08.579Z,3.53
2023-08-05T06:13:35.707Z,7.57
2023-08-05T06:16:03.276Z,3.35
2023-08-05T06:18:30.377Z,5.95
2023-08-05T06:20:57.340Z,7.70
2023-08-05T06:23:24.257Z,4.25
2023-08-05T06:25:51.193Z,3.67
2023-08-05T06:28:18.198Z,4.18
2023-08-05T06:30:46.377Z,4.72
2023-08-05T06:33:13.806Z,6.07
2023-08-05T06:35:43.976Z,6.25
2023-08-05T06:38:11.128Z,5.78
2023-08-05T06:40:41.440Z,5.20
2023-08-05T06:43:08.524Z,6.25
2023-08-05T06:45:35.513Z,5.55
2023-08-05T06:48:02.490Z,7.40
2023-08-05T06:50:29.413Z,3.15
2023-08-05T06:52:56.299Z,3.65
2023-08-05T06:55:23.215Z,6.32
2023-08-05T06:57:50.518Z,3.75
2023-08-05T07:00:18.217Z,7.00
2023-08-05T07:02:45.417Z,4.43
2023-08-05T07:05:12.664Z,3.58
2023-08-05T07:07:39.895Z,5.00
2023-08-05T07:10:09.430Z,3.50
2023-08-05T07:12:36.531Z,5.28
2023-08-05T07:15:05.149Z,5.18
2023-08-05T07:17:32.943Z,5.60
2023-08-05T07:20:00.630Z,3.13
2023-08-05T07:22:27.696Z,3.35
2023-08-05T07:24:57.377Z,7.60
2023-08-05T07:27:24.281Z,5.80
2023-08-05T07:29:51.226Z,4.10
2023-08-05T07:32:18.312Z,5.75
2023-08-05T07:34:45.234Z,5.05
2023-08-05T07:37:15.772Z,5.82
2023-08-05T07:39:47.686Z,4.90
2023-08-05T07:42:16.461Z,6.70
2023-08-05T07:44:43.956Z,5.13
2023-08-05T07:47:11.407Z,5.07
2023-08-05T07:49:38.531Z,5.13
2023-08-05T07:52:08.735Z,7.13
2023-08-05T07:54:35.939Z,7.32
2023-08-05T07:57:02.892Z,5.55
2023-08-05T07:59:29.945Z,4.30
2023-08-05T08:01:57.513Z,7.65
2023-08-05T08:04:24.494Z,4.40
2023-08-05T08:06:51.592Z,5.22
2023-08-05T08:09:18.595Z,6.57
2023-08-05T08:11:45.686Z,6.20
2023-08-05T08:14:12.662Z,5.00
2023-08-05T08:16:39.612Z,4.72
2023-08-05T08:19:07.065Z,3.85
2023-08-05T08:21:33.984Z,5.38
2023-08-05T08:24:00.985Z,3.67
2023-08-05T08:26:27.856Z,3.67
2023-08-05T08:28:54.782Z,4.10
2023-08-05T08:31:21.754Z,6.07
2023-08-05T08:33:48.933Z,3.58
2023-08-05T08:36:16.026Z,4.55
2023-08-05T08:38:42.950Z,4.80
2023-08-05T08:41:10.043Z,5.03
2023-08-05T08:43:37.631Z,3.40
2023-08-05T08:46:09.166Z,4.43
2023-08-05T08:48:37.978Z,4.07
2023-08-05T08:51:05.289Z,3.40
2023-08-05T08:53:33.967Z,4.38
2023-08-05T08:56:01.576Z,4.32
2023-08-05T08:58:28.511Z,4.22
2023-08-05T09:00:55.831Z,8.77
2023-08-05T09:03:28.877Z,5.38
2023-08-05T09:06:00.412Z,5.80
2023-08-05T09:08:28.048Z,5.68
2023-08-05T09:10:55.081Z,7.15
2023-08-05T09:13:22.566Z,6.40
2023-08-05T09:15:49.615Z,5.65
2023-08-05T09:18:16.675Z,7.20
2023-08-05T09:20:43.842Z,4.85
2023-08-05T09:23:12.323Z,4.78
2023-08-05T09:25:43.795Z,7.03
2023-08-05T09:28:11.551Z,8.75
2023-08-05T09:30:38.986Z,5.10
2023-08-05T09:33:06.997Z,5.30
2023-08-05T09:35:34.040Z,6.20
2023-08-05T09:38:02.550Z,6.07
2023-08-05T09:40:34.282Z,6.10
2023-08-05T09:43:03.910Z,5.78
2023-08-05T09:45:34.841Z,6.28
2023-08-05T09:48:10.179Z,4.15
2023-08-05T09:50:39.643Z,5.00
2023-08-05T09:53:08.580Z,4.82
2023-08-05T09:55:37.776Z,4.13
2023-08-05T09:58:09.532Z,4.20
2023-08-05T10:00:43.169Z,4.80
2023-08-05T10:03:16.667Z,4.75
2023-08-05T10:05:46.797Z,3.47
2023-08-05T10:08:21.209Z,3.55
2023-08-05T10:10:49.544Z,3.33
2023-08-05T10:13:19.413Z,4.45
2023-08-05T10:15:50.507Z,4.00
2023-08-05T10:18:19.121Z,5.15
2023-08-05T10:20:54.651Z,3.65
2023-08-05T10:23:25.666Z,6.22
2023-08-05T10:26:00.181Z,4.72
2023-08-05T10:28:27.025Z,4.28
2023-08-05T10:30:56.184Z,5.38
2023-08-05T10:33:24.045Z,5.20
2023-08-05T10:35:51.259Z,4.18
2023-08-05T10:38:22.755Z,5.18
2023-08-05T10:40:53.547Z,4.85
2023-08-05T10:43:32.711Z,4.18
2023-08-05T10:46:12.690Z,4.68
2023-08-05T10:48:49.016Z,4.20
2023-08-05T10:51:21.972Z,3.75
2023-08-05T10:53:54.941Z,4.90
2023-08-05T10:56:37.502Z,3.67
2023-08-05T10:59:05.240Z,5.95
2023-08-05T11:01:59.099Z,4.75
2023-08-05T11:04:32.362Z,3.45
2023-08-05T11:07:02.197Z,3.72
2023-08-05T11:09:34.217Z,4.18
2023-08-05T11:12:01.377Z,3.83
2023-08-05T11:14:29.133Z,2.83
2023-08-05T11:17:08.370Z,3.55
2023-08-05T11:19:54.685Z,6.20
2023-08-05T11:22:31.470Z,3.67
2023-08-05T11:25:03.482Z,3.90
2023-08-05T11:27:48.831Z,2.75
2023-08-05T11:30:18.400Z,4.43
2023-08-05T11:32:59.128Z,4.65
2023-08-05T11:35:29.155Z,3.40
2023-08-05T11:37:56.750Z,2.80
2023-08-05T11:40:24.404Z,3.63
2023-08-05T11:42:52.121Z,4.57
2023-08-05T11:45:19.309Z,5.55
2023-08-05T11:47:46.578Z,3.05
2023-08-05T11:50:14.066Z,4.38
2023-08-05T11:52:41.173Z,3.03
2023-08-05T11:55:09.580Z,4.35
2023-08-05T11:57:36.675Z,3.42
2023-08-05T12:00:11.452Z,4.40
2023-08-05T12:02:38.921Z,3.60
2023-08-05T12:05:10.517Z,4.40
2023-08-05T12:07:43.161Z,3.83
2023-08-05T12:10:13.916Z,4.38
2023-08-05T12:12:45.298Z,2.95
2023-08-05T12:15:18.439Z,2.80
2023-08-05T12:17:49.701Z,3.00
2023-08-05T12:20:21.052Z,3.40
2023-08-05T12:22:49.496Z,2.60
2023-08-05T12:25:18.386Z,5.38
2023-08-05T12:27:46.152Z,3.55
2023-08-05T12:30:13.542Z,2.80
2023-08-05T12:32:41.119Z,2.65
2023-08-05T12:35:12.249Z,2.42
2023-08-05T12:37:41.081Z,2.10
2023-08-05T12:40:10.022Z,2.65
2023-08-05T12:42:37.724Z,3.45
2023-08-05T12:45:08.653Z,3.55
2023-08-05T12:47:38.152Z,2.10
2023-08-05T12:50:06.839Z,3.47
2023-08-05T12:52:34.402Z,1.73
2023-08-05T12:55:01.422Z,2.25
2023-08-05T12:57:28.526Z,3.45
2023-08-05T12:59:55.487Z,3.15
2023-08-05T13:02:24.953Z,2.60
2023-08-05T13:04:55.604Z,3.38
2023-08-05T13:07:22.681Z,3.00
2023-08-05T13:09:49.773Z,2.35
2023-08-05T13:12:16.804Z,1.52
2023-08-05T13:14:44.633Z,2.58
2023-08-05T13:17:12.342Z,2.03
2023-08-05T13:19:39.593Z,2.03
2023-08-05T13:22:07.033Z,1.55
2023-08-05T13:24:35.404Z,1.73
2023-08-05T13:27:03.366Z,1.85
2023-08-05T13:29:30.614Z,1.73
2023-08-05T13:31:57.664Z,2.20
2023-08-05T13:34:24.819Z,3.70
2023-08-05T13:36:52.108Z,1.73
2023-08-05T13:39:19.106Z,2.47
2023-08-05T13:41:46.033Z,1.80
2023-08-05T13:44:13.056Z,1.98
2023-08-05T13:46:40.070Z,3.03
2023-08-05T13:49:07.193Z,1.50
2023-08-05T13:51:34.228Z,2.28
2023-08-05T13:54:01.473Z,1.35
2023-08-05T13:56:28.525Z,0.95
2023-08-05T13:58:55.465Z,2.92
2023-08-05T14:01:23.474Z,1.95
2023-08-05T14:03:50.743Z,2.28
2023-08-05T14:06:18.759Z,2.38
2023-08-05T14:08:46.379Z,1.63
2023-08-05T14:11:14.819Z,1.33
2023-08-05T14:13:43.238Z,1.83
2023-08-05T14:16:10.210Z,1.00
2023-08-05T14:18:37.226Z,1.23
2023-08-05T14:21:05.295Z,1.42
2023-08-05T14:23:32.194Z,0.40
2023-08-05T14:25:59.137Z,2.08
2023-08-05T14:28:26.844Z,0.98
2023-08-05T14:30:53.857Z,1.25
2023-08-05T14:33:20.868Z,0.85
2023-08-05T14:35:47.824Z,1.63
2023-08-05T14:38:15.042Z,2.15
2023-08-05T14:40:42.056Z,1.50
2023-08-05T14:43:09.042Z,0.82
2023-08-05T14:45:39.447Z,0.73
2023-08-05T14:48:06.970Z,1.02
2023-08-05T14:50:40.119Z,0.93
2023-08-05T14:53:07.461Z,0.75
2023-08-05T14:55:34.542Z,0.73
2023-08-05T14:58:01.529Z,0.60
2023-08-05T15:00:28.732Z,0.43
2023-08-05T15:02:55.903Z,0.90
2023-08-05T15:05:23.265Z,0.82
2023-08-05T15:07:50.299Z,0.45
2023-08-05T15:10:17.462Z,1.10
2023-08-05T15:12:44.443Z,1.35
2023-08-05T15:15:11.554Z,0.98
2023-08-05T15:17:42.176Z,1.17
2023-08-05T15:20:11.643Z,0.75
2023-08-05T15:22:39.269Z,1.75
2023-08-05T15:25:06.660Z,1.30
2023-08-05T15:27:34.037Z,0.70
2023-08-05T15:30:01.125Z,1.65
2023-08-05T15:32:28.493Z,1.02
2023-08-05T15:34:55.501Z,1.33
2023-08-05T15:37:22.439Z,1.02
2023-08-05T15:39:49.413Z,1.17
2023-08-05T15:42:16.421Z,1.63
2023-08-05T15:44:43.323Z,0.88
2023-08-05T15:47:10.198Z,0.75
2023-08-05T15:49:37.135Z,1.48
2023-08-05T15:52:04.394Z,0.73
2023-08-05T15:54:31.294Z,0.90
2023-08-05T15:56:58.637Z,1.13
2023-08-05T15:59:25.719Z,0.45
2023-08-05T16:01:52.905Z,0.63
2023-08-05T16:04:20.202Z,0.68
2023-08-05T16:06:48.501Z,0.57
2023-08-05T16:09:15.406Z,0.45
2023-08-05T16:11:42.391Z,0.70
2023-08-05T16:14:09.377Z,0.77
2023-08-05T16:16:36.331Z,0.30
2023-08-05T16:19:03.266Z,1.48
2023-08-05T16:21:30.138Z,0.40
2023-08-05T16:23:58.679Z,0.38
2023-08-05T16:26:27.077Z,0.40
2023-08-05T16:28:54.408Z,1.77
2023-08-05T16:31:23.744Z,1.23
2023-08-05T16:33:51.021Z,0.90
2023-08-05T16:36:18.020Z,0.28
2023-08-05T16:38:45.501Z,0.50
2023-08-05T16:41:12.717Z,0.60
2023-08-05T16:43:40.159Z,0.70
2023-08-05T16:46:08.495Z,1.00
2023-08-05T16:48:36.177Z,0.95
2023-08-05T16:51:06.558Z,0.25
2023-08-05T16:53:34.364Z,0.57
2023-08-05T16:56:04.298Z,1.05
2023-08-05T16:58:31.264Z,0.57
2023-08-05T17:00:58.734Z,0.60
2023-08-05T17:03:25.851Z,0.52
2023-08-05T17:05:55.940Z,1.13
2023-08-05T17:08:22.923Z,0.30
2023-08-05T17:10:50.180Z,0.38
2023-08-05T17:13:17.125Z,0.75
2023-08-05T17:15:45.486Z,0.93
2023-08-05T17:18:13.615Z,0.30
2023-08-05T17:20:41.204Z,0.30
2023-08-05T17:23:08.705Z,0.28
2023-08-05T17:25:42.246Z,0.25
2023-08-05T17:28:09.707Z,0.80
2023-08-05T17:30:37.448Z,0.50
2023-08-05T17:33:04.939Z,0.88
2023-08-05T17:35:33.150Z,0.70
2023-08-05T17:38:00.442Z,1.52
2023-08-05T17:40:32.316Z,1.50
2023-08-05T17:42:59.758Z,1.45
2023-08-05T17:45:26.794Z,1.60
2023-08-05T17:47:53.820Z,2.28
2023-08-05T17:50:20.803Z,2.75
2023-08-05T17:52:47.730Z,2.50
2023-08-05T17:55:14.804Z,2.10
2023-08-05T17:57:41.686Z,0.35
2023-08-05T18:00:09.241Z,1.10
2023-08-05T18:02:36.273Z,0.43
2023-08-05T18:05:03.287Z,1.15
2023-08-05T18:07:30.257Z,0.70
2023-08-05T18:09:59.512Z,1.67
2023-08-05T18:12:26.669Z,1.35
2023-08-05T18:14:53.584Z,2.10
2023-08-05T18:17:20.548Z,0.60
2023-08-05T18:19:47.494Z,0.35
2023-08-05T18:22:14.414Z,1.30
2023-08-05T18:24:41.325Z,0.70
2023-08-05T18:27:08.238Z,0.68
2023-08-05T18:29:36.024Z,0.52
2023-08-05T18:32:03.997Z,0.17
2023-08-05T18:34:31.000Z,0.93
2023-08-05T18:36:57.884Z,0.90
2023-08-05T18:39:25.198Z,1.10
2023-08-05T18:41:52.872Z,0.90
2023-08-05T18:44:19.970Z,1.73
2023-08-05T18:46:46.928Z,0.80
2023-08-05T18:49:13.897Z,0.73
2023-08-05T18:51:40.864Z,0.30
2023-08-05T18:54:07.804Z,1.58
2023-08-05T18:56:34.769Z,0.77
2023-08-05T18:59:01.659Z,0.90
2023-08-05T19:01:28.750Z,0.82
2023-08-05T19:03:55.703Z,0.77
2023-08-05T19:06:22.693Z,0.80
2023-08-05T19:08:49.642Z,1.15
2023-08-05T19:11:17.458Z,1.95
2023-08-05T19:13:44.639Z,0.20
2023-08-05T19:16:11.749Z,4.63
2023-08-05T19:18:38.818Z,1.38
2023-08-05T19:21:06.735Z,0.98
2023-08-05T19:23:34.802Z,0.65
2023-08-05T19:26:03.006Z,0.90
2023-08-05T19:28:30.640Z,0.57
2023-08-05T19:30:57.883Z,0.50
2023-08-05T19:33:24.814Z,0.30
2023-08-05T19:35:51.760Z,1.50
2023-08-05T19:38:18.675Z,1.20
2023-08-05T19:40:45.835Z,1.08
2023-08-05T19:43:12.774Z,0.38
2023-08-05T19:45:39.727Z,0.70
2023-08-05T19:48:06.728Z,0.68
2023-08-05T19:50:33.703Z,0.68
2023-08-05T19:53:00.627Z,0.80
2023-08-05T19:55:33.341Z,0.55
2023-08-05T19:58:00.593Z,0.77
2023-08-05T20:00:27.902Z,0.98
2023-08-05T20:02:54.915Z,1.52
2023-08-05T20:05:22.069Z,0.55
2023-08-05T20:07:48.994Z,0.57
2023-08-05T20:10:15.946Z,1.48
2023-08-05T20:12:42.955Z,1.50
2023-08-05T20:15:10.253Z,2.17
2023-08-05T20:17:37.278Z,2.05
2023-08-05T20:20:04.483Z,0.77
2023-08-05T20:22:31.528Z,1.40
2023-08-05T20:25:00.251Z,1.20
2023-08-05T20:27:27.622Z,1.20
2023-08-05T20:29:54.576Z,0.77
2023-08-05T20:32:22.259Z,2.60
2023-08-05T20:34:49.992Z,0.40
2023-08-05T20:37:20.867Z,0.95
2023-08-05T20:39:47.925Z,1.80
2023-08-05T20:42:14.930Z,1.27
2023-08-05T20:44:41.847Z,1.27
2023-08-05T20:47:08.812Z,0.75
2023-08-05T20:49:35.797Z,1.13
2023-08-05T20:52:03.617Z,2.03
2023-08-05T20:54:31.023Z,0.80
2023-08-05T20:56:58.331Z,0.90
2023-08-05T20:59:25.842Z,0.90
2023-08-05T21:01:53.395Z,2.00
2023-08-05T21:04:20.780Z,1.10
2023-08-05T21:06:47.754Z,1.30
2023-08-05T21:09:14.790Z,0.88
2023-08-05T21:11:42.218Z,1.42
2023-08-05T21:14:09.148Z,1.90
2023-08-05T21:16:37.147Z,0.85
2023-08-05T21:19:04.304Z,0.65
2023-08-05T21:21:31.194Z,0.70
2023-08-05T21:23:58.062Z,0.45
2023-08-05T21:26:24.982Z,1.10
2023-08-05T21:28:51.928Z,1.65
2023-08-05T21:31:18.860Z,0.93
2023-08-05T21:33:46.040Z,1.95
2023-08-05T21:36:13.231Z,2.47
2023-08-05T21:38:40.104Z,6.25
2023-08-05T21:41:07.225Z,6.45
2023-08-05T21:43:34.126Z,8.57
2023-08-05T21:46:01.034Z,9.95
2023-08-05T21:48:29.466Z,7.65
2023-08-05T21:51:01.055Z,9.48
2023-08-05T21:53:27.974Z,10.65
2023-08-05T21:55:54.884Z,11.40
2023-08-05T21:58:21.921Z,12.20
2023-08-05T22:00:49.509Z,12.27
2023-08-05T22:03:16.603Z,10.02
2023-08-05T22:05:43.735Z,11.65
2023-08-05T22:08:10.684Z,10.32
2023-08-05T22:10:39.264Z,9.35
2023-08-05T22:13:06.253Z,6.18
2023-08-05T22:15:33.206Z,2.65
2023-08-05T22:18:01.077Z,3.38
2023-08-05T22:20:28.127Z,3.88
2023-08-05T22:22:55.522Z,3.60
2023-08-05T22:25:22.746Z,3.30
2023-08-05T22:27:49.730Z,1.85
2023-08-05T22:30:16.731Z,1.67
2023-08-05T22:32:43.779Z,0.85
2023-08-05T22:35:10.777Z,2.00
2023-08-05T22:37:37.781Z,2.45
2023-08-05T22:40:05.441Z,0.73
2023-08-05T22:42:32.501Z,2.40
2023-08-05T22:44:59.392Z,1.00
2023-08-05T22:47:26.409Z,1.88
2023-08-05T22:49:53.382Z,1.13
2023-08-05T22:52:20.414Z,1.77
2023-08-05T22:54:47.560Z,2.30
2023-08-05T22:57:14.485Z,1.10
2023-08-05T22:59:41.443Z,1.25
2023-08-05T23:02:08.454Z,1.30
2023-08-05T23:04:35.567Z,1.25
2023-08-05T23:07:02.462Z,2.10
2023-08-05T23:09:29.439Z,2.88
2023-08-05T23:11:56.826Z,2.42
2023-08-05T23:14:24.090Z,1.73
2023-08-05T23:16:51.011Z,2.13
2023-08-05T23:19:17.913Z,1.27
2023-08-05T23:21:44.819Z,0.50
2023-08-05T23:24:12.380Z,0.93
2023-08-05T23:26:39.796Z,0.77
2023-08-05T23:29:06.783Z,3.08
2023-08-05T23:31:34.095Z,2.92
2023-08-05T23:34:01.250Z,4.22
2023-08-05T23:36:28.606Z,1.88
2023-08-05T23:38:55.652Z,1.70
2023-08-05T23:41:22.643Z,3.03
2023-08-05T23:43:49.582Z,1.00
2023-08-05T23:46:16.677Z,1.08
2023-08-05T23:48:43.727Z,1.08
2023-08-05T23:51:10.738Z,3.65
2023-08-05T23:53:37.836Z,1.17
2023-08-05T23:56:05.094Z,1.10
2023-08-05T23:58:32.047Z,1.33
